createdAt,value
2018-09-03T00:00:50.213Z,985.888
2018-09-03T00:02:50.357Z,985.913
2018-09-03T00:04:49.602Z,985.939
2018-09-03T00:06:49.776Z,985.984
2018-09-03T00:08:49.837Z,985.980
2018-09-03T00:10:49.792Z,985.974
2018-09-03T00:12:49.920Z,985.983
2018-09-03T00:14:49.924Z,986.021
2018-09-03T00:16:50.209Z,986.021
2018-09-03T00:18:50.173Z,986.072
2018-09-03T00:20:50.188Z,986.099
2018-09-03T00:22:50.191Z,986.129
2018-09-03T00:24:50.145Z,986.142
2018-09-03T00:26:50.261Z,986.126
2018-09-03T00:28:50.238Z,986.105
2018-09-03T00:30:50.277Z,986.124
2018-09-03T00:32:50.252Z,986.129
2018-09-03T00:34:50.476Z,986.082
2018-09-03T00:36:49.781Z,986.050
2018-09-03T00:38:50.567Z,985.962
2018-09-03T00:40:50.514Z,985.931
2018-09-03T00:42:49.678Z,985.873
2018-09-03T00:44:49.939Z,985.855
2018-09-03T00:46:50.039Z,985.795
2018-09-03T00:48:49.941Z,985.793
2018-09-03T00:50:50.005Z,985.778
2018-09-03T00:52:50.007Z,985.759
2018-09-03T00:54:50.195Z,985.732
2018-09-03T00:56:50.479Z,985.730
2018-09-03T00:58:50.494Z,985.718
2018-09-03T01:00:49.610Z,985.684
2018-09-03T01:02:49.640Z,985.684
2018-09-03T01:04:50.184Z,985.670
2018-09-03T01:06:50.301Z,985.708
2018-09-03T01:08:50.263Z,985.728
2018-09-03T01:10:50.272Z,985.754
2018-09-03T01:12:50.261Z,985.754
2018-09-03T01:14:50.347Z,985.785
2018-09-03T01:16:50.546Z,985.781
2018-09-03T01:18:50.481Z,985.741
2018-09-03T01:20:50.554Z,985.729
2018-09-03T01:22:50.596Z,985.720
2018-09-03T01:24:50.618Z,985.732
2018-09-03T01:26:49.850Z,985.732
2018-09-03T01:28:50.036Z,985.724
2018-09-03T01:30:49.944Z,985.724
2018-09-03T01:32:49.943Z,985.684
2018-09-03T01:34:50.263Z,985.665
2018-09-03T01:36:50.458Z,985.649
2018-09-03T01:38:50.506Z,985.630
2018-09-03T01:40:50.485Z,985.586
2018-09-03T01:42:50.610Z,985.577
2018-09-03T01:44:49.638Z,985.554
2018-09-03T01:46:49.859Z,985.572
2018-09-03T01:48:49.935Z,985.597
2018-09-03T01:50:49.926Z,985.596
2018-09-03T01:52:49.888Z,985.571
2018-09-03T01:54:49.925Z,985.549
2018-09-03T01:56:50.112Z,985.556
2018-09-03T01:58:50.047Z,985.602
2018-09-03T02:00:50.058Z,985.621
2018-09-03T02:02:50.218Z,985.600
2018-09-03T02:04:50.432Z,985.579
2018-09-03T02:06:49.666Z,985.613
2018-09-03T02:08:49.729Z,985.641
2018-09-03T02:10:49.805Z,985.608
2018-09-03T02:12:49.877Z,985.569
2018-09-03T02:14:49.834Z,985.514
2018-09-03T02:16:50.015Z,985.492
2018-09-03T02:18:50.008Z,985.442
2018-09-03T02:20:49.997Z,985.376
2018-09-03T02:22:50.124Z,985.376
2018-09-03T02:24:50.103Z,985.357
2018-09-03T02:26:50.240Z,985.356
2018-09-03T02:28:50.246Z,985.374
2018-09-03T02:30:50.233Z,985.357
2018-09-03T02:32:50.208Z,985.364
2018-09-03T02:34:50.407Z,985.384
2018-09-03T02:36:49.658Z,985.382
2018-09-03T02:38:49.753Z,985.398
2018-09-03T02:40:49.716Z,985.404
2018-09-03T02:42:49.723Z,985.373
2018-09-03T02:44:49.862Z,985.349
2018-09-03T02:46:50.051Z,985.270
2018-09-03T02:48:50.061Z,985.255
2018-09-03T02:50:50.007Z,985.255
2018-09-03T02:52:50.032Z,985.244
2018-09-03T02:54:50.075Z,985.228
2018-09-03T02:56:50.303Z,985.188
2018-09-03T02:58:50.322Z,985.165
2018-09-03T03:00:50.368Z,985.119
2018-09-03T03:02:50.314Z,985.110
2018-09-03T03:04:49.646Z,985.047
2018-09-03T03:06:49.964Z,985.028
2018-09-03T03:08:49.874Z,984.975
2018-09-03T03:10:49.835Z,984.925
2018-09-03T03:12:49.852Z,984.850
2018-09-03T03:14:49.846Z,984.837
2018-09-03T03:16:50.038Z,984.837
2018-09-03T03:18:50.046Z,984.772
2018-09-03T03:20:50.087Z,984.741
2018-09-03T03:22:50.038Z,984.711
2018-09-03T03:24:50.085Z,984.663
2018-09-03T03:26:50.378Z,984.668
2018-09-03T03:28:50.430Z,984.667
2018-09-03T03:30:50.421Z,984.663
2018-09-03T03:32:50.449Z,984.637
2018-09-03T03:34:49.971Z,984.661
2018-09-03T03:36:50.159Z,984.685
2018-09-03T03:38:50.099Z,984.705
2018-09-03T03:40:50.122Z,984.709
2018-09-03T03:42:50.212Z,984.668
2018-09-03T03:44:50.225Z,984.615
2018-09-03T03:46:50.384Z,984.600
2018-09-03T03:48:50.528Z,984.588
2018-09-03T03:50:49.630Z,984.609
2018-09-03T03:52:49.656Z,984.605
2018-09-03T03:54:49.633Z,984.572
2018-09-03T03:56:50.000Z,984.566
2018-09-03T03:58:49.974Z,984.548
2018-09-03T04:00:49.946Z,984.548
2018-09-03T04:02:50.008Z,984.551
2018-09-03T04:04:50.436Z,984.565
2018-09-03T04:06:49.705Z,984.562
2018-09-03T04:08:49.748Z,984.523
2018-09-03T04:10:49.747Z,984.529
2018-09-03T04:12:49.814Z,984.514
2018-09-03T04:14:49.894Z,984.490
2018-09-03T04:16:50.101Z,984.479
2018-09-03T04:18:50.081Z,984.466
2018-09-03T04:20:50.059Z,984.472
2018-09-03T04:22:50.184Z,984.485
2018-09-03T04:24:50.311Z,984.520
2018-09-03T04:26:49.985Z,984.520
2018-09-03T04:28:50.353Z,984.479
2018-09-03T04:30:49.622Z,984.477
2018-09-03T04:32:49.675Z,984.476
2018-09-03T04:34:49.931Z,984.476
2018-09-03T04:36:50.159Z,984.461
2018-09-03T04:38:50.487Z,984.468
2018-09-03T04:40:49.868Z,984.469
2018-09-03T04:42:49.852Z,984.481
2018-09-03T04:44:49.854Z,984.478
2018-09-03T04:46:49.989Z,984.451
2018-09-03T04:48:50.014Z,984.438
2018-09-03T04:50:49.988Z,984.444
2018-09-03T04:52:50.026Z,984.437
2018-09-03T04:54:50.053Z,984.444
2018-09-03T04:56:50.230Z,984.459
2018-09-03T04:58:50.140Z,984.472
2018-09-03T05:00:50.117Z,984.462
2018-09-03T05:02:50.193Z,984.453
2018-09-03T05:04:50.470Z,984.466
2018-09-03T05:06:49.638Z,984.465
2018-09-03T05:08:49.647Z,984.497
2018-09-03T05:10:49.645Z,984.554
2018-09-03T05:12:49.766Z,984.544
2018-09-03T05:14:49.727Z,984.542
2018-09-03T05:16:50.030Z,984.553
2018-09-03T05:18:50.215Z,984.571
2018-09-03T05:20:50.143Z,984.575
2018-09-03T05:22:50.225Z,984.612
2018-09-03T05:24:50.409Z,984.660
2018-09-03T05:26:50.601Z,984.674
2018-09-03T05:28:50.578Z,984.668
2018-09-03T05:30:49.659Z,984.674
2018-09-03T05:32:49.886Z,984.692
2018-09-03T05:34:50.199Z,984.698
2018-09-03T05:36:50.136Z,984.684
2018-09-03T05:38:50.175Z,984.696
2018-09-03T05:40:50.255Z,984.699
2018-09-03T05:42:50.202Z,984.714
2018-09-03T05:44:50.335Z,984.718
2018-09-03T05:46:49.609Z,984.752
2018-09-03T05:48:49.634Z,984.754
2018-09-03T05:50:49.642Z,984.748
2018-09-03T05:52:49.646Z,984.737
2018-09-03T05:54:49.676Z,984.734
2018-09-03T05:56:49.759Z,984.722
2018-09-03T05:58:49.794Z,984.722
2018-09-03T06:00:49.732Z,984.725
2018-09-03T06:02:49.738Z,984.734
2018-09-03T06:04:50.455Z,984.744
2018-09-03T06:06:49.740Z,984.777
2018-09-03T06:08:49.832Z,984.777
2018-09-03T06:10:49.877Z,984.759
2018-09-03T06:12:49.983Z,984.710
2018-09-03T06:14:49.978Z,984.686
2018-09-03T06:16:50.179Z,984.662
2018-09-03T06:18:50.204Z,984.658
2018-09-03T06:20:50.244Z,984.661
2018-09-03T06:22:50.208Z,984.662
2018-09-03T06:24:50.213Z,984.674
2018-09-03T06:26:50.522Z,984.675
2018-09-03T06:28:50.432Z,984.700
2018-09-03T06:30:50.473Z,984.709
2018-09-03T06:32:49.866Z,984.700
2018-09-03T06:34:49.661Z,984.670
2018-09-03T06:36:49.807Z,984.672
2018-09-03T06:38:49.808Z,984.673
2018-09-03T06:40:50.003Z,984.658
2018-09-03T06:42:50.050Z,984.649
2018-09-03T06:44:50.056Z,984.637
2018-09-03T06:46:50.219Z,984.602
2018-09-03T06:48:50.288Z,984.586
2018-09-03T06:50:50.356Z,984.534
2018-09-03T06:52:50.791Z,984.517
2018-09-03T06:54:49.825Z,984.454
2018-09-03T06:56:50.035Z,984.444
2018-09-03T06:58:49.984Z,984.419
2018-09-03T07:00:50.000Z,984.397
2018-09-03T07:02:49.992Z,984.353
2018-09-03T07:04:50.346Z,984.313
2018-09-03T07:06:50.912Z,984.280
2018-09-03T07:08:50.118Z,984.187
2018-09-03T07:10:50.130Z,984.162
2018-09-03T07:12:50.147Z,984.147
2018-09-03T07:14:50.176Z,984.192
2018-09-03T07:16:50.272Z,984.192
2018-09-03T07:18:50.688Z,984.142
2018-09-03T07:20:49.908Z,984.095
2018-09-03T07:22:49.887Z,984.034
2018-09-03T07:24:49.880Z,984.018
2018-09-03T07:26:50.015Z,984.052
2018-09-03T07:28:50.240Z,984.073
2018-09-03T07:30:50.568Z,984.079
2018-09-03T07:32:50.533Z,984.074
2018-09-03T07:34:50.034Z,984.046
2018-09-03T07:36:50.239Z,984.043
2018-09-03T07:38:50.203Z,984.029
2018-09-03T07:40:50.327Z,984.043
2018-09-03T07:42:50.306Z,984.051
2018-09-03T07:44:50.295Z,984.061
2018-09-03T07:46:50.458Z,984.054
2018-09-03T07:48:50.517Z,984.050
2018-09-03T07:50:50.616Z,984.046
2018-09-03T07:52:49.764Z,984.055
2018-09-03T07:54:49.818Z,984.139
2018-09-03T07:56:50.079Z,984.148
2018-09-03T07:58:50.042Z,984.186
2018-09-03T08:00:50.092Z,984.172
2018-09-03T08:02:50.220Z,984.164
2018-09-03T08:04:50.487Z,984.164
2018-09-03T08:06:49.848Z,984.140
2018-09-03T08:08:49.851Z,984.124
2018-09-03T08:10:50.012Z,984.112
2018-09-03T08:12:50.217Z,984.090
2018-09-03T08:14:50.218Z,984.078
2018-09-03T08:16:50.442Z,984.058
2018-09-03T08:18:50.414Z,984.042
2018-09-03T08:20:50.516Z,984.037
2018-09-03T08:22:50.593Z,984.037
2018-09-03T08:24:50.552Z,984.091
2018-09-03T08:26:49.761Z,984.121
2018-09-03T08:28:49.802Z,984.127
2018-09-03T08:30:50.070Z,984.135
2018-09-03T08:32:50.038Z,984.146
2018-09-03T08:34:50.377Z,984.167
2018-09-03T08:36:50.558Z,984.169
2018-09-03T08:38:49.788Z,984.179
2018-09-03T08:40:49.953Z,984.174
2018-09-03T08:42:49.980Z,984.166
2018-09-03T08:44:50.128Z,984.146
2018-09-03T08:46:49.920Z,984.103
2018-09-03T08:48:49.886Z,984.060
2018-09-03T08:50:49.933Z,984.038
2018-09-03T08:52:49.910Z,983.991
2018-09-03T08:54:49.924Z,983.967
2018-09-03T08:56:50.361Z,983.945
2018-09-03T08:58:49.709Z,983.900
2018-09-03T09:00:49.806Z,983.917
2018-09-03T09:02:49.780Z,983.954
2018-09-03T09:04:50.326Z,983.954
2018-09-03T09:06:50.437Z,983.957
2018-09-03T09:08:50.569Z,983.933
2018-09-03T09:10:49.679Z,983.919
2018-09-03T09:12:49.724Z,983.876
2018-09-03T09:14:49.739Z,983.865
2018-09-03T09:16:50.170Z,983.841
2018-09-03T09:18:50.397Z,983.818
2018-09-03T09:20:50.355Z,983.795
2018-09-03T09:22:50.451Z,983.777
2018-09-03T09:24:50.355Z,983.737
2018-09-03T09:26:50.535Z,983.714
2018-09-03T09:28:50.591Z,983.663
2018-09-03T09:30:49.630Z,983.652
2018-09-03T09:32:49.729Z,983.631
2018-09-03T09:34:50.243Z,983.611
2018-09-03T09:36:50.692Z,983.620
2018-09-03T09:38:50.099Z,983.624
2018-09-03T09:40:50.091Z,983.601
2018-09-03T09:42:50.247Z,983.601
2018-09-03T09:44:50.291Z,983.610
2018-09-03T09:46:50.471Z,983.611
2018-09-03T09:48:49.638Z,983.590
2018-09-03T09:50:49.793Z,983.586
2018-09-03T09:52:49.915Z,983.589
2018-09-03T09:54:49.987Z,983.607
2018-09-03T09:56:50.314Z,983.609
2018-09-03T09:58:50.298Z,983.611
2018-09-03T10:00:50.429Z,983.609
2018-09-03T10:02:50.346Z,983.595
2018-09-03T10:04:49.767Z,983.584
2018-09-03T10:06:50.023Z,983.585
2018-09-03T10:08:50.160Z,983.593
2018-09-03T10:10:50.141Z,983.595
2018-09-03T10:12:50.312Z,983.630
2018-09-03T10:14:50.319Z,983.630
2018-09-03T10:16:50.553Z,983.673
2018-09-03T10:18:49.609Z,983.692
2018-09-03T10:20:49.826Z,983.727
2018-09-03T10:22:49.902Z,983.745
2018-09-03T10:24:49.877Z,983.790
2018-09-03T10:26:50.037Z,983.791
2018-09-03T10:28:49.995Z,983.807
2018-09-03T10:30:49.980Z,983.809
2018-09-03T10:32:50.087Z,983.824
2018-09-03T10:34:50.416Z,983.804
2018-09-03T10:36:50.592Z,983.783
2018-09-03T10:38:50.544Z,983.775
2018-09-03T10:40:49.636Z,983.730
2018-09-03T10:42:49.618Z,983.719
2018-09-03T10:44:50.564Z,983.702
2018-09-03T10:46:49.959Z,983.710
2018-09-03T10:48:50.200Z,983.749
2018-09-03T10:50:50.160Z,983.762
2018-09-03T10:52:50.206Z,983.775
2018-09-03T10:54:50.167Z,983.778
2018-09-03T10:56:50.463Z,983.784
2018-09-03T10:58:50.524Z,983.784
2018-09-03T11:00:50.595Z,983.761
2018-09-03T11:02:49.654Z,983.761
2018-09-03T11:04:50.162Z,983.768
2018-09-03T11:06:50.291Z,983.756
2018-09-03T11:08:50.310Z,983.725
2018-09-03T11:10:50.273Z,983.663
2018-09-03T11:12:50.325Z,983.640
2018-09-03T11:14:50.555Z,983.597
2018-09-03T11:16:49.726Z,983.565
2018-09-03T11:18:49.754Z,983.539
2018-09-03T11:20:49.718Z,983.546
2018-09-03T11:22:49.778Z,983.555
2018-09-03T11:24:49.807Z,983.537
2018-09-03T11:26:50.127Z,983.532
2018-09-03T11:28:50.434Z,983.547
2018-09-03T11:30:49.727Z,983.543
2018-09-03T11:32:49.834Z,983.560
2018-09-03T11:34:50.059Z,983.563
2018-09-03T11:36:50.147Z,983.581
2018-09-03T11:38:50.092Z,983.560
2018-09-03T11:40:50.262Z,983.552
2018-09-03T11:42:50.455Z,983.564
2018-09-03T11:44:49.603Z,983.574
2018-09-03T11:46:49.860Z,983.577
2018-09-03T11:48:49.991Z,983.565
2018-09-03T11:50:49.999Z,983.540
2018-09-03T11:52:50.115Z,983.519
2018-09-03T11:54:50.092Z,983.494
2018-09-03T11:56:50.225Z,983.491
2018-09-03T11:58:50.383Z,983.496
2018-09-03T12:00:50.397Z,983.491
2018-09-03T12:02:50.404Z,983.506
2018-09-03T12:04:49.969Z,983.508
2018-09-03T12:06:50.095Z,983.512
2018-09-03T12:08:50.047Z,983.507
2018-09-03T12:10:50.111Z,983.486
2018-09-03T12:12:50.044Z,983.485
2018-09-03T12:14:49.986Z,983.499
2018-09-03T12:16:50.075Z,983.479
2018-09-03T12:18:50.141Z,983.479
2018-09-03T12:20:50.168Z,983.472
2018-09-03T12:22:50.253Z,983.466
2018-09-03T12:24:50.250Z,983.466
2018-09-03T12:26:50.485Z,983.459
2018-09-03T12:28:50.443Z,983.462
2018-09-03T12:30:50.438Z,983.468
2018-09-03T12:32:50.429Z,983.485
2018-09-03T12:34:49.846Z,983.468
2018-09-03T12:36:50.057Z,983.463
2018-09-03T12:38:50.128Z,983.434
2018-09-03T12:40:50.165Z,983.417
2018-09-03T12:42:50.271Z,983.380
2018-09-03T12:44:50.473Z,983.373
2018-09-03T12:46:49.677Z,983.379
2018-09-03T12:48:49.807Z,983.398
2018-09-03T12:50:49.773Z,983.396
2018-09-03T12:52:49.777Z,983.351
2018-09-03T12:54:49.764Z,983.347
2018-09-03T12:56:49.962Z,983.354
2018-09-03T12:58:50.181Z,983.369
2018-09-03T13:00:49.820Z,983.375
2018-09-03T13:02:50.210Z,983.376
2018-09-03T13:04:49.843Z,983.387
2018-09-03T13:06:50.080Z,983.368
2018-09-03T13:08:50.046Z,983.361
2018-09-03T13:10:50.022Z,983.352
2018-09-03T13:12:50.348Z,983.352
2018-09-03T13:14:50.479Z,983.356
2018-09-03T13:16:49.734Z,983.358
2018-09-03T13:18:50.183Z,983.398
2018-09-03T13:20:50.329Z,983.406
2018-09-03T13:22:50.282Z,983.394
2018-09-03T13:24:50.257Z,983.388
2018-09-03T13:26:50.478Z,983.413
2018-09-03T13:28:50.505Z,983.419
2018-09-03T13:30:50.786Z,983.417
2018-09-03T13:32:50.121Z,983.412
2018-09-03T13:34:50.351Z,983.413
2018-09-03T13:36:49.694Z,983.413
2018-09-03T13:38:49.674Z,983.447
2018-09-03T13:40:49.695Z,983.432
2018-09-03T13:42:49.625Z,983.391
2018-09-03T13:44:50.612Z,983.308
2018-09-03T13:46:49.786Z,983.247
2018-09-03T13:48:49.744Z,983.115
2018-09-03T13:50:49.767Z,983.098
2018-09-03T13:52:49.934Z,983.102
2018-09-03T13:54:50.233Z,983.104
2018-09-03T13:56:50.822Z,983.104
2018-09-03T13:58:49.912Z,983.102
2018-09-03T14:00:49.927Z,983.094
2018-09-03T14:02:50.001Z,983.094
2018-09-03T14:04:50.420Z,983.098
2018-09-03T14:06:49.784Z,983.079
2018-09-03T14:08:49.745Z,983.035
2018-09-03T14:10:49.787Z,983.022
2018-09-03T14:12:49.767Z,983.004
2018-09-03T14:14:49.907Z,982.994
2018-09-03T14:16:50.195Z,982.980
2018-09-03T14:18:49.704Z,982.974
2018-09-03T14:20:49.616Z,982.966
2018-09-03T14:22:49.668Z,982.952
2018-09-03T14:24:49.721Z,982.934
2018-09-03T14:26:49.881Z,982.938
2018-09-03T14:28:49.848Z,982.913
2018-09-03T14:30:49.829Z,982.889
2018-09-03T14:32:49.805Z,982.882
2018-09-03T14:34:50.119Z,982.896
2018-09-03T14:36:50.415Z,982.895
2018-09-03T14:38:50.417Z,982.879
2018-09-03T14:40:50.627Z,982.849
2018-09-03T14:42:49.618Z,982.837
2018-09-03T14:44:49.761Z,982.829
2018-09-03T14:46:49.995Z,982.830
2018-09-03T14:48:50.049Z,982.786
2018-09-03T14:50:50.025Z,982.761
2018-09-03T14:52:50.019Z,982.726
2018-09-03T14:54:49.998Z,982.741
2018-09-03T14:56:50.135Z,982.759
2018-09-03T14:58:50.183Z,982.789
2018-09-03T15:00:50.189Z,982.799
2018-09-03T15:02:50.247Z,982.774
2018-09-03T15:04:49.725Z,982.751
2018-09-03T15:06:49.950Z,982.706
2018-09-03T15:08:50.004Z,982.706
2018-09-03T15:10:50.000Z,982.752
2018-09-03T15:12:50.009Z,982.738
2018-09-03T15:14:50.152Z,982.753
2018-09-03T15:16:50.469Z,982.762
2018-09-03T15:18:50.380Z,982.803
2018-09-03T15:20:50.387Z,982.818
2018-09-03T15:22:50.385Z,982.817
2018-09-03T15:24:50.398Z,982.819
2018-09-03T15:26:50.470Z,982.813
2018-09-03T15:28:50.579Z,982.794
2018-09-03T15:30:50.512Z,982.803
2018-09-03T15:32:49.682Z,982.764
2018-09-03T15:34:50.116Z,982.768
2018-09-03T15:36:50.328Z,982.766
2018-09-03T15:38:50.286Z,982.778
2018-09-03T15:40:50.412Z,982.769
2018-09-03T15:42:50.442Z,982.764
2018-09-03T15:44:50.679Z,982.775
2018-09-03T15:46:49.898Z,982.808
2018-09-03T15:48:50.121Z,982.810
2018-09-03T15:50:50.200Z,982.821
2018-09-03T15:52:50.198Z,982.822
2018-09-03T15:54:50.229Z,982.828
2018-09-03T15:56:49.893Z,982.816
2018-09-03T15:58:49.859Z,982.804
2018-09-03T16:00:49.830Z,982.762
2018-09-03T16:02:49.909Z,982.734
2018-09-03T16:04:50.247Z,982.752
2018-09-03T16:06:50.448Z,982.761
2018-09-03T16:08:50.489Z,982.762
2018-09-03T16:10:50.534Z,982.741
2018-09-03T16:12:50.462Z,982.739
2018-09-03T16:14:50.458Z,982.745
2018-09-03T16:16:49.746Z,982.763
2018-09-03T16:18:49.996Z,982.771
2018-09-03T16:20:50.090Z,982.779
2018-09-03T16:22:50.174Z,982.784
2018-09-03T16:24:50.105Z,982.778
2018-09-03T16:26:50.227Z,982.790
2018-09-03T16:28:50.262Z,982.816
2018-09-03T16:30:50.285Z,982.837
2018-09-03T16:32:50.268Z,982.840
2018-09-03T16:34:49.632Z,982.823
2018-09-03T16:36:49.958Z,982.824
2018-09-03T16:38:50.302Z,982.823
2018-09-03T16:40:50.561Z,982.824
2018-09-03T16:42:50.599Z,982.822
2018-09-03T16:44:49.633Z,982.815
2018-09-03T16:46:49.837Z,982.803
2018-09-03T16:48:49.984Z,982.804
2018-09-03T16:50:49.995Z,982.808
2018-09-03T16:52:50.043Z,982.825
2018-09-03T16:54:50.053Z,982.825
2018-09-03T16:56:50.137Z,982.834
2018-09-03T16:58:50.198Z,982.836
2018-09-03T17:00:50.305Z,982.844
2018-09-03T17:02:50.456Z,982.857
2018-09-03T17:04:49.942Z,982.863
2018-09-03T17:06:50.113Z,982.845
2018-09-03T17:08:50.202Z,982.834
2018-09-03T17:10:50.151Z,982.849
2018-09-03T17:12:50.167Z,982.860
2018-09-03T17:14:50.209Z,982.886
2018-09-03T17:16:50.365Z,982.899
2018-09-03T17:18:50.360Z,982.931
2018-09-03T17:20:50.358Z,982.940
2018-09-03T17:22:50.343Z,982.959
2018-09-03T17:24:50.287Z,982.952
2018-09-03T17:26:50.505Z,982.962
2018-09-03T17:28:50.777Z,982.972
2018-09-03T17:30:50.213Z,982.975
2018-09-03T17:32:50.227Z,982.959
2018-09-03T17:34:49.626Z,982.987
2018-09-03T17:36:50.008Z,983.008
2018-09-03T17:38:50.016Z,983.036
2018-09-03T17:40:50.090Z,983.041
2018-09-03T17:42:50.063Z,983.048
2018-09-03T17:44:50.163Z,983.087
2018-09-03T17:46:50.239Z,983.088
2018-09-03T17:48:50.222Z,983.088
2018-09-03T17:50:50.257Z,983.108
2018-09-03T17:52:50.337Z,983.108
2018-09-03T17:54:50.365Z,983.146
2018-09-03T17:56:49.670Z,983.157
2018-09-03T17:58:49.691Z,983.167
2018-09-03T18:00:49.723Z,983.169
2018-09-03T18:02:49.752Z,983.191
2018-09-03T18:04:50.260Z,983.211
2018-09-03T18:06:50.391Z,983.215
2018-09-03T18:08:50.416Z,983.236
2018-09-03T18:10:50.467Z,983.254
2018-09-03T18:12:50.454Z,983.251
2018-09-03T18:14:50.485Z,983.252
2018-09-03T18:16:49.705Z,983.252
2018-09-03T18:18:49.661Z,983.232
2018-09-03T18:20:49.857Z,983.238
2018-09-03T18:22:49.853Z,983.258
2018-09-03T18:24:49.851Z,983.269
2018-09-03T18:26:50.023Z,983.321
2018-09-03T18:28:50.076Z,983.327
2018-09-03T18:30:50.127Z,983.357
2018-09-03T18:32:50.058Z,983.356
2018-09-03T18:34:50.345Z,983.346
2018-09-03T18:36:50.513Z,983.346
2018-09-03T18:38:50.589Z,983.367
2018-09-03T18:40:49.647Z,983.364
2018-09-03T18:42:49.680Z,983.368
2018-09-03T18:44:49.769Z,983.375
2018-09-03T18:46:49.916Z,983.387
2018-09-03T18:48:50.025Z,983.412
2018-09-03T18:50:50.144Z,983.431
2018-09-03T18:52:50.282Z,983.413
2018-09-03T18:54:50.287Z,983.405
2018-09-03T18:56:50.551Z,983.423
2018-09-03T18:58:49.615Z,983.420
2018-09-03T19:00:49.774Z,983.420
2018-09-03T19:02:49.812Z,983.426
2018-09-03T19:04:50.277Z,983.423
2018-09-03T19:06:50.359Z,983.427
2018-09-03T19:08:50.408Z,983.421
2018-09-03T19:10:50.388Z,983.437
2018-09-03T19:12:50.416Z,983.449
2018-09-03T19:14:50.376Z,983.441
2018-09-03T19:16:50.507Z,983.462
2018-09-03T19:18:49.611Z,983.512
2018-09-03T19:20:49.837Z,983.550
2018-09-03T19:22:49.936Z,983.559
2018-09-03T19:24:49.918Z,983.551
2018-09-03T19:26:50.180Z,983.535
2018-09-03T19:28:50.266Z,983.515
2018-09-03T19:30:50.249Z,983.531
2018-09-03T19:32:50.232Z,983.517
2018-09-03T19:34:49.605Z,983.507
2018-09-03T19:36:49.850Z,983.477
2018-09-03T19:38:49.824Z,983.475
2018-09-03T19:40:49.786Z,983.478
2018-09-03T19:42:49.843Z,983.488
2018-09-03T19:44:49.856Z,983.492
2018-09-03T19:46:50.090Z,983.486
2018-09-03T19:48:50.103Z,983.495
2018-09-03T19:50:50.123Z,983.490
2018-09-03T19:52:50.111Z,983.488
2018-09-03T19:54:50.173Z,983.491
2018-09-03T19:56:50.320Z,983.474
2018-09-03T19:58:50.530Z,983.459
2018-09-03T20:00:50.484Z,983.459
2018-09-03T20:02:50.534Z,983.471
2018-09-03T20:04:50.164Z,983.460
2018-09-03T20:06:50.318Z,983.460
2018-09-03T20:08:50.311Z,983.425
2018-09-03T20:10:50.351Z,983.420
2018-09-03T20:12:50.307Z,983.414
2018-09-03T20:14:50.273Z,983.406
2018-09-03T20:16:50.460Z,983.419
2018-09-03T20:18:50.479Z,983.452
2018-09-03T20:20:50.471Z,983.460
2018-09-03T20:22:50.567Z,983.451
2018-09-03T20:24:49.719Z,983.437
2018-09-03T20:26:50.008Z,983.437
2018-09-03T20:28:49.970Z,983.435
2018-09-03T20:30:49.948Z,983.444
2018-09-03T20:32:49.981Z,983.455
2018-09-03T20:34:50.258Z,983.458
2018-09-03T20:36:49.705Z,983.487
2018-09-03T20:38:49.926Z,983.503
2018-09-03T20:40:49.949Z,983.514
2018-09-03T20:42:50.131Z,983.492
2018-09-03T20:44:50.699Z,983.492
2018-09-03T20:46:50.314Z,983.491
2018-09-03T20:48:50.285Z,983.488
2018-09-03T20:50:50.327Z,983.517
2018-09-03T20:52:50.273Z,983.517
2018-09-03T20:54:50.229Z,983.497
2018-09-03T20:56:50.439Z,983.501
2018-09-03T20:58:50.383Z,983.498
2018-09-03T21:00:50.456Z,983.507
2018-09-03T21:02:50.490Z,983.522
2018-09-03T21:04:49.776Z,983.522
2018-09-03T21:06:50.066Z,983.523
2018-09-03T21:08:50.051Z,983.519
2018-09-03T21:10:50.027Z,983.519
2018-09-03T21:12:50.053Z,983.503
2018-09-03T21:14:50.089Z,983.482
2018-09-03T21:16:50.271Z,983.461
2018-09-03T21:18:50.272Z,983.444
2018-09-03T21:20:50.268Z,983.440
2018-09-03T21:22:50.338Z,983.432
2018-09-03T21:24:50.323Z,983.409
2018-09-03T21:26:50.489Z,983.393
2018-09-03T21:28:50.461Z,983.394
2018-09-03T21:30:50.464Z,983.405
2018-09-03T21:32:50.459Z,983.410
2018-09-03T21:34:49.795Z,983.392
2018-09-03T21:36:49.916Z,983.383
2018-09-03T21:38:49.916Z,983.383
2018-09-03T21:40:49.924Z,983.372
2018-09-03T21:42:49.905Z,983.372
2018-09-03T21:44:49.866Z,983.408
2018-09-03T21:46:50.396Z,983.408
2018-09-03T21:48:49.848Z,983.458
2018-09-03T21:50:49.977Z,983.484
2018-09-03T21:52:49.965Z,983.509
2018-09-03T21:54:50.007Z,983.505
2018-09-03T21:56:50.178Z,983.490
2018-09-03T21:58:50.209Z,983.494
2018-09-03T22:00:50.208Z,983.473
2018-09-03T22:02:50.584Z,983.450
2018-09-03T22:04:49.902Z,983.425
2018-09-03T22:06:50.033Z,983.404
2018-09-03T22:08:49.961Z,983.398
2018-09-03T22:10:49.932Z,983.390
2018-09-03T22:12:49.953Z,983.396
2018-09-03T22:14:49.933Z,983.404
2018-09-03T22:16:50.116Z,983.407
2018-09-03T22:18:50.115Z,983.407
2018-09-03T22:20:50.145Z,983.393
2018-09-03T22:22:50.256Z,983.374
2018-09-03T22:24:50.229Z,983.348
2018-09-03T22:26:50.398Z,983.330
2018-09-03T22:28:50.490Z,983.340
2018-09-03T22:30:49.644Z,983.355
2018-09-03T22:32:49.948Z,983.350
2018-09-03T22:34:50.334Z,983.355
2018-09-03T22:36:50.523Z,983.361
2018-09-03T22:38:50.397Z,983.345
2018-09-03T22:40:50.488Z,983.316
2018-09-03T22:42:50.461Z,983.296
2018-09-03T22:44:50.389Z,983.304
2018-09-03T22:46:49.707Z,983.304
2018-09-03T22:48:49.722Z,983.333
2018-09-03T22:50:49.943Z,983.343
2018-09-03T22:52:49.972Z,983.331
2018-09-03T22:54:49.993Z,983.328
2018-09-03T22:56:50.158Z,983.325
2018-09-03T22:58:50.153Z,983.325
2018-09-03T23:00:50.132Z,983.305
2018-09-03T23:02:50.187Z,983.312
2018-09-03T23:04:50.473Z,983.318
2018-09-03T23:06:49.855Z,983.318
2018-09-03T23:08:49.814Z,983.310
2018-09-03T23:10:49.827Z,983.304
2018-09-03T23:12:49.811Z,983.287
2018-09-03T23:14:49.874Z,983.286
2018-09-03T23:16:49.966Z,983.295
2018-09-03T23:18:50.018Z,983.303
2018-09-03T23:20:50.122Z,983.288
2018-09-03T23:22:50.182Z,983.282
2018-09-03T23:24:50.171Z,983.268
2018-09-03T23:26:50.322Z,983.252
2018-09-03T23:28:50.302Z,983.239
2018-09-03T23:30:50.291Z,983.191
2018-09-03T23:32:50.271Z,983.173
2018-09-03T23:34:49.622Z,983.157
2018-09-03T23:36:49.903Z,983.131
2018-09-03T23:38:50.015Z,983.106
2018-09-03T23:40:50.050Z,983.071
2018-09-03T23:42:50.046Z,983.054
2018-09-03T23:44:50.031Z,983.049
2018-09-03T23:46:50.300Z,983.049
2018-09-03T23:48:50.438Z,983.057
2018-09-03T23:50:50.394Z,983.036
2018-09-03T23:52:50.449Z,983.036
2018-09-03T23:54:50.379Z,983.041
2018-09-03T23:56:50.583Z,983.014
2018-09-03T23:58:50.589Z,982.987
